Time;durP1;ratioP1;P1;durP2;ratioP2;P2;SDS_P1;SDS_P2;PMS_P1;PMS_P2;Temp;Humidity;BMP_temperature;BMP_pressure;BME280_temperature;BME280_humidity;BME280_pressure;Samples;Min_cycle;Max_cycle;Signal;HPM_P1;HPM_P2
2021/05/29 00:01:10;;;;;;;5.35;4.18;;;12.30;99.90;;;;;;5023188;28;20594;-70
2021/05/29 00:03:36;;;;;;;4.88;4.38;;;12.30;99.90;;;;;;5022441;28;20184;-70
2021/05/29 00:06:02;;;;;;;4.90;4.30;;;12.20;99.90;;;;;;5026471;28;20194;-70
2021/05/29 00:08:28;;;;;;;4.80;4.40;;;12.20;99.90;;;;;;5027286;28;20208;-71
2021/05/29 00:10:56;;;;;;;4.85;3.70;;;12.30;99.90;;;;;;5027955;28;20212;-71
2021/05/29 00:13:23;;;;;;;4.50;4.10;;;12.20;99.90;;;;;;5023986;28;20176;-71
2021/05/29 00:15:50;;;;;;;4.25;3.83;;;12.20;99.90;;;;;;5028285;28;20257;-72
2021/05/29 00:18:16;;;;;;;4.38;3.85;;;12.20;99.90;;;;;;5025630;28;20682;-71
2021/05/29 00:20:42;;;;;;;5.00;4.00;;;12.20;99.90;;;;;;5022104;28;20212;-71
2021/05/29 00:23:09;;;;;;;4.40;4.00;;;12.20;99.90;;;;;;5023470;28;20216;-71
2021/05/29 00:25:36;;;;;;;6.00;4.28;;;12.10;99.90;;;;;;5028411;28;20184;-70
2021/05/29 00:28:03;;;;;;;6.63;4.72;;;12.10;99.90;;;;;;5026443;28;20196;-71
2021/05/29 00:30:28;;;;;;;7.55;4.95;;;12.10;99.90;;;;;;5009355;28;20211;-71
2021/05/29 00:32:54;;;;;;;7.50;4.45;;;12.00;99.90;;;;;;5019136;28;20205;-71
2021/05/29 00:35:20;;;;;;;4.60;4.07;;;12.00;99.90;;;;;;5011520;28;20550;-71
2021/05/29 00:37:46;;;;;;;4.32;4.00;;;12.00;99.90;;;;;;5026350;28;20231;-72
2021/05/29 00:40:12;;;;;;;4.75;4.13;;;12.00;99.90;;;;;;5023949;28;20188;-71
2021/05/29 00:42:38;;;;;;;6.57;4.97;;;12.00;99.90;;;;;;5027461;28;20200;-71
2021/05/29 00:45:05;;;;;;;5.40;4.90;;;12.00;99.90;;;;;;5021353;28;20595;-71
2021/05/29 00:47:31;;;;;;;4.85;4.28;;;11.90;99.90;;;;;;5027132;28;20211;-71
2021/05/29 00:49:59;;;;;;;6.03;5.07;;;11.90;99.90;;;;;;5025769;28;20168;-71
2021/05/29 00:52:25;;;;;;;5.03;4.63;;;11.90;99.90;;;;;;5006409;28;20204;-71
2021/05/29 00:54:51;;;;;;;5.05;4.13;;;11.90;99.90;;;;;;5021441;28;20211;-70
2021/05/29 00:57:18;;;;;;;5.20;4.70;;;11.90;99.90;;;;;;5026298;28;20588;-70
2021/05/29 00:59:44;;;;;;;5.38;4.53;;;11.90;99.90;;;;;;5018986;28;20192;-71
2021/05/29 01:02:12;;;;;;;4.55;3.85;;;11.90;99.90;;;;;;5019241;28;20306;-71
2021/05/29 01:04:39;;;;;;;4.72;3.80;;;11.90;99.90;;;;;;5021651;28;20659;-71
2021/05/29 01:07:11;;;;;;;5.85;3.47;;;11.90;99.90;;;;;;5022492;28;20226;-71
2021/05/29 01:09:38;;;;;;;4.00;3.70;;;11.90;99.90;;;;;;5009775;28;20263;-71
2021/05/29 01:12:06;;;;;;;4.28;3.88;;;11.90;99.90;;;;;;5024102;28;20204;-71
2021/05/29 01:14:32;;;;;;;5.07;3.50;;;11.90;99.90;;;;;;5022084;28;20203;-71
2021/05/29 01:17:00;;;;;;;3.95;3.65;;;11.90;99.90;;;;;;5010494;28;20180;-71
2021/05/29 01:19:26;;;;;;;7.28;4.03;;;11.80;99.90;;;;;;5023956;28;20266;-71
2021/05/29 01:21:52;;;;;;;3.92;3.63;;;11.80;99.90;;;;;;5022702;28;20212;-70
2021/05/29 01:24:19;;;;;;;4.00;3.17;;;11.80;99.90;;;;;;5024125;28;20200;-70
2021/05/29 01:26:45;;;;;;;4.72;3.67;;;11.80;99.90;;;;;;5024388;28;20176;-70
2021/05/29 01:29:11;;;;;;;4.20;3.75;;;11.70;99.90;;;;;;5025264;28;20234;-71
2021/05/29 01:31:37;;;;;;;4.90;3.10;;;11.70;99.90;;;;;;5025811;28;20200;-70
2021/05/29 01:34:03;;;;;;;4.60;4.15;;;11.70;99.90;;;;;;5021855;28;20238;-70
2021/05/29 01:36:29;;;;;;;4.20;3.90;;;11.70;99.90;;;;;;5025253;28;20258;-70
2021/05/29 01:38:55;;;;;;;3.97;3.47;;;11.70;99.90;;;;;;5024985;28;20190;-69
2021/05/29 01:41:23;;;;;;;4.25;3.45;;;11.70;99.90;;;;;;5023606;28;20827;-69
2021/05/29 01:43:50;;;;;;;5.25;3.65;;;11.70;99.90;;;;;;5023647;28;20180;-70
2021/05/29 01:46:19;;;;;;;3.95;3.65;;;11.70;99.90;;;;;;5026416;28;20180;-70
2021/05/29 01:48:47;;;;;;;3.83;3.53;;;11.70;99.90;;;;;;5025554;28;20618;-70
2021/05/29 01:51:15;;;;;;;4.55;3.83;;;11.70;99.90;;;;;;5023249;28;20206;-70
2021/05/29 01:53:41;;;;;;;5.38;4.10;;;11.70;99.90;;;;;;5024600;28;20192;-70
2021/05/29 01:56:07;;;;;;;6.07;3.97;;;11.70;99.90;;;;;;5024515;28;20199;-70
2021/05/29 01:58:37;;;;;;;4.70;4.10;;;11.70;99.90;;;;;;5022756;28;20299;-70
2021/05/29 02:01:07;;;;;;;4.35;4.05;;;11.70;99.90;;;;;;5020034;28;20208;-70
2021/05/29 02:03:34;;;;;;;3.92;3.63;;;11.70;99.90;;;;;;5002357;28;20208;-70
2021/05/29 02:05:59;;;;;;;4.88;4.05;;;11.60;99.90;;;;;;5021583;28;20184;-70
2021/05/29 02:08:25;;;;;;;4.90;3.67;;;11.60;99.90;;;;;;5023693;28;20181;-70
2021/05/29 02:10:51;;;;;;;5.68;4.35;;;11.50;99.90;;;;;;5024317;28;20187;-70
2021/05/29 02:13:29;;;;;;;4.20;3.80;;;11.50;99.90;;;;;;5024937;28;20563;-70
2021/05/29 02:15:55;;;;;;;4.50;4.10;;;11.50;99.90;;;;;;5020436;28;20239;-70
2021/05/29 02:18:21;;;;;;;4.05;3.65;;;11.50;99.90;;;;;;5026083;28;20279;-70
2021/05/29 02:20:52;;;;;;;5.13;3.92;;;11.50;99.90;;;;;;5022788;28;20212;-70
2021/05/29 02:23:27;;;;;;;4.57;4.18;;;11.50;99.90;;;;;;5020527;28;20208;-70
2021/05/29 02:25:55;;;;;;;3.97;3.67;;;11.50;99.90;;;;;;5022162;28;20219;-70
2021/05/29 02:28:22;;;;;;;5.68;3.85;;;11.40;99.90;;;;;;5008926;28;20663;-70
2021/05/29 02:30:50;;;;;;;5.53;4.38;;;11.40;99.90;;;;;;5019728;28;20633;-70
2021/05/29 02:33:16;;;;;;;4.22;3.92;;;11.40;99.90;;;;;;5007156;28;20750;-70
2021/05/29 02:35:42;;;;;;;4.95;4.55;;;11.40;99.90;;;;;;5022251;28;20200;-70
2021/05/29 02:38:08;;;;;;;5.28;4.15;;;11.40;99.90;;;;;;5025350;28;20624;-70
2021/05/29 02:40:34;;;;;;;5.13;4.63;;;11.40;99.90;;;;;;5021295;28;20712;-70
2021/05/29 02:43:00;;;;;;;4.50;4.10;;;11.40;99.90;;;;;;5026916;28;20737;-70
2021/05/29 02:45:26;;;;;;;4.90;4.50;;;11.40;99.90;;;;;;5026365;28;20215;-70
2021/05/29 02:47:53;;;;;;;4.38;4.00;;;11.30;99.90;;;;;;5026705;28;20189;-70
2021/05/29 02:50:19;;;;;;;4.70;4.35;;;11.30;99.90;;;;;;5027310;28;20188;-70
2021/05/29 02:52:45;;;;;;;5.10;4.63;;;11.30;99.90;;;;;;5025835;28;20226;-70
2021/05/29 02:55:15;;;;;;;5.10;4.45;;;11.30;99.90;;;;;;5012859;28;20184;-70
2021/05/29 02:57:41;;;;;;;5.60;4.82;;;11.30;99.90;;;;;;5024543;28;20199;-71
2021/05/29 03:00:09;;;;;;;4.60;4.13;;;11.30;99.90;;;;;;5028481;28;20192;-71
2021/05/29 03:02:36;;;;;;;5.10;4.07;;;11.30;99.90;;;;;;5031571;28;20212;-72
2021/05/29 03:05:02;;;;;;;4.57;4.28;;;11.30;99.90;;;;;;5024065;28;20184;-71
2021/05/29 03:07:28;;;;;;;5.38;4.40;;;11.30;99.90;;;;;;5028946;28;20184;-70
2021/05/29 03:09:53;;;;;;;4.53;4.22;;;11.30;99.90;;;;;;5029676;28;20176;-70
2021/05/29 03:12:19;;;;;;;5.57;4.78;;;11.30;99.90;;;;;;5023437;28;20212;-70
2021/05/29 03:14:45;;;;;;;9.38;4.95;;;11.20;99.90;;;;;;5027483;28;20704;-70
2021/05/29 03:17:10;;;;;;;4.70;4.18;;;11.20;99.90;;;;;;5023853;28;20246;-70
2021/05/29 03:19:37;;;;;;;5.90;4.80;;;11.20;99.90;;;;;;5027326;28;20655;-70
2021/05/29 03:22:03;;;;;;;4.90;4.50;;;11.20;99.90;;;;;;5022136;28;20208;-70
2021/05/29 03:24:28;;;;;;;5.20;4.70;;;11.10;99.90;;;;;;5027028;28;20191;-70
2021/05/29 03:26:55;;;;;;;5.53;4.70;;;11.10;99.90;;;;;;5028550;28;20211;-69
2021/05/29 03:29:21;;;;;;;5.75;4.93;;;11.10;99.90;;;;;;5012918;28;20185;-70
2021/05/29 03:31:47;;;;;;;5.00;4.45;;;11.00;99.90;;;;;;5020616;28;20208;-70
2021/05/29 03:34:13;;;;;;;5.25;4.32;;;11.00;99.90;;;;;;5026809;28;20663;-70
2021/05/29 03:36:38;;;;;;;4.80;4.40;;;11.00;99.90;;;;;;5024678;28;20275;-70
2021/05/29 03:39:05;;;;;;;4.97;4.43;;;11.00;99.90;;;;;;5017946;28;20594;-70
2021/05/29 03:41:31;;;;;;;5.40;4.90;;;11.00;99.90;;;;;;5026144;28;20626;-70
2021/05/29 03:43:57;;;;;;;5.28;4.70;;;11.00;99.90;;;;;;5008770;28;20184;-70
2021/05/29 03:46:22;;;;;;;5.38;4.85;;;11.00;99.90;;;;;;5027113;28;20219;-70
2021/05/29 03:48:48;;;;;;;8.05;4.72;;;11.00;99.90;;;;;;5025037;28;20181;-70
2021/05/29 03:51:14;;;;;;;10.32;5.05;;;11.00;99.90;;;;;;5024385;28;20185;-70
2021/05/29 03:53:40;;;;;;;8.05;5.00;;;11.00;99.90;;;;;;5025106;28;20271;-70
2021/05/29 03:56:06;;;;;;;9.35;5.78;;;11.00;99.90;;;;;;5027699;28;20183;-70
2021/05/29 03:58:32;;;;;;;7.93;5.35;;;11.00;99.90;;;;;;5025142;28;20567;-70
2021/05/29 04:00:58;;;;;;;6.80;5.47;;;11.00;99.90;;;;;;5020910;28;20215;-70
2021/05/29 04:03:25;;;;;;;7.88;5.80;;;11.10;99.90;;;;;;5025219;28;20276;-70
2021/05/29 04:05:50;;;;;;;5.95;5.45;;;11.10;99.90;;;;;;5026188;28;20172;-70
2021/05/29 04:08:16;;;;;;;7.45;5.40;;;11.10;99.90;;;;;;5023995;28;20692;-71
2021/05/29 04:10:42;;;;;;;6.60;6.10;;;11.10;99.90;;;;;;5026548;28;20201;-70
2021/05/29 04:13:07;;;;;;;13.38;5.60;;;11.10;99.90;;;;;;5024942;28;20211;-70
2021/05/29 04:15:33;;;;;;;5.53;5.05;;;11.10;99.90;;;;;;5027267;28;20561;-70
2021/05/29 04:18:00;;;;;;;9.48;5.13;;;11.20;99.90;;;;;;5024492;28;20199;-70
2021/05/29 04:20:27;;;;;;;7.05;5.28;;;11.20;99.90;;;;;;5024018;28;20196;-70
2021/05/29 04:22:54;;;;;;;8.98;5.80;;;11.20;99.90;;;;;;5024931;28;20246;-70
2021/05/29 04:25:25;;;;;;;8.13;5.35;;;11.30;99.90;;;;;;5024569;28;20631;-70
2021/05/29 04:27:51;;;;;;;6.80;5.28;;;11.30;99.90;;;;;;5022183;28;20599;-70
2021/05/29 04:30:19;;;;;;;5.47;4.97;;;11.40;99.90;;;;;;5027537;28;20176;-70
2021/05/29 04:32:46;;;;;;;5.72;5.10;;;11.40;99.90;;;;;;5024505;28;20209;-70
2021/05/29 04:35:12;;;;;;;5.05;4.55;;;11.50;99.90;;;;;;5024457;28;20189;-70
2021/05/29 04:37:38;;;;;;;8.95;5.32;;;11.50;99.90;;;;;;5026071;28;20192;-70
2021/05/29 04:40:06;;;;;;;5.45;4.90;;;11.50;99.90;;;;;;5025601;28;20211;-70
2021/05/29 04:42:32;;;;;;;10.57;4.75;;;11.60;99.90;;;;;;5022268;28;20249;-71
2021/05/29 04:44:58;;;;;;;6.30;5.28;;;11.70;99.90;;;;;;5028991;28;20184;-70
2021/05/29 04:47:23;;;;;;;6.75;5.13;;;11.80;99.90;;;;;;5022530;28;20196;-70
2021/05/29 04:49:49;;;;;;;5.18;4.68;;;11.90;99.90;;;;;;5020702;28;21405;-70
2021/05/29 04:52:15;;;;;;;6.88;5.07;;;12.00;99.90;;;;;;5017681;28;20717;-70
2021/05/29 04:54:40;;;;;;;5.85;4.45;;;12.10;99.90;;;;;;5022123;28;20192;-71
2021/05/29 04:57:06;;;;;;;5.88;4.43;;;12.10;99.90;;;;;;5021660;28;20203;-70
2021/05/29 04:59:32;;;;;;;6.50;4.82;;;12.20;99.90;;;;;;5008624;28;20663;-71
2021/05/29 05:01:58;;;;;;;5.20;4.70;;;12.30;99.90;;;;;;5022972;28;20220;-70
2021/05/29 05:04:23;;;;;;;9.00;4.47;;;12.40;99.90;;;;;;5020767;28;20176;-71
2021/05/29 05:06:49;;;;;;;9.70;4.20;;;12.50;99.90;;;;;;5024543;28;20180;-70
2021/05/29 05:09:15;;;;;;;6.63;4.30;;;12.50;99.90;;;;;;5023903;28;20269;-70
2021/05/29 05:11:40;;;;;;;4.78;4.32;;;12.60;99.90;;;;;;5025442;28;20577;-70
2021/05/29 05:14:06;;;;;;;6.40;4.40;;;12.70;99.90;;;;;;5023297;28;20577;-69
2021/05/29 05:16:32;;;;;;;6.13;4.82;;;12.80;99.90;;;;;;5026179;28;20589;-71
2021/05/29 05:18:57;;;;;;;5.25;4.15;;;12.90;99.90;;;;;;5012916;28;20194;-71
2021/05/29 05:21:24;;;;;;;6.40;4.57;;;13.00;99.90;;;;;;5022326;28;21183;-69
2021/05/29 05:23:52;;;;;;;5.18;3.80;;;13.10;99.90;;;;;;5023042;28;20188;-70
2021/05/29 05:26:18;;;;;;;4.88;4.13;;;13.20;99.90;;;;;;5005683;28;20189;-70
2021/05/29 05:28:45;;;;;;;4.82;4.00;;;13.30;99.90;;;;;;5024833;28;20611;-70
2021/05/29 05:31:11;;;;;;;7.80;4.35;;;13.50;99.90;;;;;;5023770;28;20196;-70
2021/05/29 05:33:41;;;;;;;4.22;3.83;;;13.60;99.90;;;;;;5024510;28;20536;-70
2021/05/29 05:36:08;;;;;;;4.65;3.70;;;13.60;99.90;;;;;;5020329;28;20686;-70
2021/05/29 05:38:34;;;;;;;4.25;3.72;;;13.70;99.90;;;;;;5022993;28;20188;-71
2021/05/29 05:41:00;;;;;;;6.97;3.65;;;13.80;99.90;;;;;;5026313;28;20204;-70
2021/05/29 05:43:26;;;;;;;3.47;3.00;;;13.90;99.90;;;;;;5027733;28;20186;-69
2021/05/29 05:45:52;;;;;;;4.47;3.28;;;14.00;99.90;;;;;;5023101;28;20192;-69
2021/05/29 05:48:17;;;;;;;3.58;3.28;;;14.00;99.90;;;;;;5025919;28;20659;-71
2021/05/29 05:50:59;;;;;;;6.63;3.08;;;14.10;99.90;;;;;;5026935;28;20184;-70
2021/05/29 05:53:27;;;;;;;6.00;2.97;;;14.20;99.90;;;;;;5005880;28;20867;-70
2021/05/29 05:55:59;;;;;;;3.30;3.00;;;14.30;99.90;;;;;;5024895;28;20192;-70
2021/05/29 05:58:25;;;;;;;6.88;2.78;;;14.30;99.90;;;;;;5024272;28;20634;-69
2021/05/29 06:00:50;;;;;;;3.40;2.70;;;14.40;99.90;;;;;;5023929;28;20766;-70
2021/05/29 06:03:16;;;;;;;2.95;2.60;;;14.60;99.90;;;;;;5015037;28;20208;-70
2021/05/29 06:05:41;;;;;;;5.30;2.42;;;15.00;99.90;;;;;;5024340;28;20255;-70
2021/05/29 06:08:07;;;;;;;2.72;2.53;;;15.10;99.90;;;;;;5025099;28;20557;-70
2021/05/29 06:10:33;;;;;;;3.83;2.42;;;15.20;99.90;;;;;;5022568;28;20193;-70
2021/05/29 06:12:59;;;;;;;4.38;2.45;;;15.90;99.90;;;;;;5024051;28;20279;-72
2021/05/29 06:20:39;;;;;;;2.30;2.10;;;19.10;96.20;;;;;;5024557;28;20240;-72
2021/05/29 06:23:05;;;;;;;9.40;2.00;;;19.80;95.50;;;;;;5013355;28;20224;-69
2021/05/29 06:25:31;;;;;;;3.35;2.10;;;19.70;94.90;;;;;;5025593;28;20200;-69
2021/05/29 06:27:56;;;;;;;3.67;2.10;;;19.50;94.00;;;;;;5024268;28;20197;-70
2021/05/29 06:30:22;;;;;;;6.20;1.75;;;19.80;93.70;;;;;;5028920;28;20255;-70
2021/05/29 06:32:48;;;;;;;4.38;1.77;;;20.00;91.90;;;;;;5028209;28;20212;-70
2021/05/29 06:35:13;;;;;;;2.55;2.00;;;20.10;92.20;;;;;;5013837;28;20184;-70
2021/05/29 06:37:40;;;;;;;2.05;1.85;;;20.20;90.00;;;;;;5025964;28;20220;-70
2021/05/29 06:40:08;;;;;;;2.22;1.92;;;20.00;88.80;;;;;;5031185;28;20180;-71
2021/05/29 06:42:34;;;;;;;2.38;1.90;;;19.80;87.10;;;;;;5025093;28;20231;-71
2021/05/29 06:45:00;;;;;;;1.95;1.70;;;19.70;85.80;;;;;;5029053;28;20270;-71
2021/05/29 06:47:25;;;;;;;2.22;1.70;;;19.70;85.80;;;;;;5034802;28;20208;-69
2021/05/29 06:49:51;;;;;;;1.80;1.70;;;19.70;84.50;;;;;;5008713;28;20672;-71
2021/05/29 06:52:20;;;;;;;1.90;1.80;;;19.60;84.40;;;;;;5024214;28;20212;-71
2021/05/29 06:59:59;;;;;;;3.13;2.15;;;19.70;83.60;;;;;;5023702;28;20214;-70
2021/05/29 07:02:25;;;;;;;2.90;2.00;;;19.90;82.80;;;;;;5023214;28;20208;-70
2021/05/29 07:04:51;;;;;;;4.22;1.80;;;20.00;82.70;;;;;;5020819;28;20180;-71
2021/05/29 07:07:18;;;;;;;3.40;1.90;;;20.10;80.50;;;;;;5024095;28;20188;-70
2021/05/29 07:09:44;;;;;;;1.95;1.83;;;20.00;80.80;;;;;;5020506;28;21601;-71
2021/05/29 07:12:10;;;;;;;2.05;1.85;;;20.00;79.90;;;;;;5022975;28;20598;-70
2021/05/29 07:14:35;;;;;;;6.72;2.67;;;20.10;79.30;;;;;;5003516;28;20200;-70
2021/05/29 07:17:03;;;;;;;5.20;1.90;;;20.30;82.50;;;;;;5025350;28;20195;-70
2021/05/29 07:19:29;;;;;;;3.40;1.83;;;20.60;80.00;;;;;;5025888;28;20180;-70
2021/05/29 07:21:54;;;;;;;2.15;1.88;;;20.90;76.70;;;;;;5020000;28;20224;-70
2021/05/29 07:24:21;;;;;;;5.10;1.95;;;20.90;76.10;;;;;;5024165;28;20207;-70
2021/05/29 07:26:47;;;;;;;2.20;1.60;;;20.90;73.50;;;;;;5025896;28;20279;-70
2021/05/29 07:29:13;;;;;;;2.60;1.80;;;20.80;74.60;;;;;;5020637;28;20276;-70
2021/05/29 07:31:40;;;;;;;3.28;1.70;;;20.80;73.40;;;;;;5006754;28;20250;-70
2021/05/29 07:34:05;;;;;;;2.33;1.90;;;20.70;72.30;;;;;;5025151;28;20189;-71
2021/05/29 07:36:31;;;;;;;4.30;1.83;;;20.90;70.10;;;;;;5027032;28;20667;-70
2021/05/29 07:38:57;;;;;;;2.65;1.65;;;21.20;71.50;;;;;;5026980;28;20227;-70
2021/05/29 07:41:23;;;;;;;3.83;1.73;;;21.30;71.30;;;;;;5009976;28;20208;-70
2021/05/29 07:43:49;;;;;;;1.73;1.42;;;21.50;68.80;;;;;;5024803;28;20267;-70
2021/05/29 07:46:17;;;;;;;2.70;1.50;;;21.50;68.40;;;;;;5011154;28;20719;-71
2021/05/29 07:48:42;;;;;;;2.30;1.63;;;21.70;66.80;;;;;;5026986;28;20181;-70
2021/05/29 07:51:09;;;;;;;2.38;1.65;;;21.80;65.60;;;;;;5017933;28;20701;-70
2021/05/29 07:53:40;;;;;;;2.78;1.65;;;21.80;65.60;;;;;;5024883;28;20184;-70
2021/05/29 07:56:09;;;;;;;1.33;1.20;;;21.90;67.00;;;;;;5021240;28;20192;-70
2021/05/29 07:58:35;;;;;;;2.05;1.52;;;22.10;65.50;;;;;;5023453;28;20192;-70
2021/05/29 08:01:02;;;;;;;1.50;1.30;;;22.30;61.60;;;;;;5023253;28;20209;-70
2021/05/29 08:03:31;;;;;;;4.63;1.20;;;22.40;60.50;;;;;;5023669;28;20181;-71
2021/05/29 08:05:57;;;;;;;2.08;1.50;;;22.60;62.60;;;;;;5022076;28;20264;-71
2021/05/29 08:08:24;;;;;;;3.38;1.00;;;22.70;59.70;;;;;;5009646;28;20741;-71
2021/05/29 08:10:52;;;;;;;1.73;1.50;;;22.90;57.80;;;;;;5029537;28;20195;-69
2021/05/29 08:13:19;;;;;;;4.28;1.30;;;22.80;58.20;;;;;;5021811;28;20235;-71
2021/05/29 08:15:45;;;;;;;2.75;1.73;;;22.90;57.80;;;;;;5009416;28;20192;-68
2021/05/29 08:18:12;;;;;;;3.33;1.40;;;22.90;57.30;;;;;;5023336;28;20208;-69
2021/05/29 08:20:38;;;;;;;8.20;4.15;;;22.80;58.90;;;;;;5020562;28;20199;-69
2021/05/29 08:23:05;;;;;;;2.67;1.83;;;22.90;56.60;;;;;;5018090;28;20274;-69
2021/05/29 08:25:32;;;;;;;3.13;1.55;;;23.10;59.40;;;;;;5009977;28;20191;-69
2021/05/29 08:27:58;;;;;;;3.92;1.27;;;;;;;;;;5026156;28;20176;-71
2021/05/29 08:30:26;;;;;;;1.38;1.15;;;;;;;;;;5025297;28;20246;-68
2021/05/29 08:32:52;;;;;;;4.72;1.38;;;;;;;;;;5010087;28;20254;-70
2021/05/29 08:35:18;;;;;;;2.22;1.33;;;;;;;;;;5020454;28;20679;-69
2021/05/29 08:37:45;;;;;;;1.27;1.05;;;;;;;;;;5023529;28;20644;-69
2021/05/29 08:40:13;;;;;;;5.50;1.30;;;;;;;;;;5025104;28;20180;-70
2021/05/29 08:42:39;;;;;;;1.77;1.20;;;;;;;;;;5017457;28;20215;-68
2021/05/29 08:45:06;;;;;;;2.85;1.60;;;;;;;;;;5008199;28;20254;-70
2021/05/29 08:47:32;;;;;;;2.72;1.48;;;;;;;;;;5004666;28;20212;-70
2021/05/29 08:49:58;;;;;;;2.13;1.50;;;;;;;;;;5022484;28;20203;-72
2021/05/29 08:52:24;;;;;;;4.07;1.40;;;23.30;55.80;;;;;;5024052;28;21125;-69
2021/05/29 08:54:49;;;;;;;3.38;1.67;;;23.20;52.90;;;;;;5008081;28;20185;-72
2021/05/29 08:57:17;;;;;;;3.25;1.40;;;22.70;53.00;;;;;;5023543;28;20238;-69
2021/05/29 08:59:42;;;;;;;1.77;1.02;;;22.40;53.40;;;;;;5023327;28;20611;-70
2021/05/29 09:02:09;;;;;;;2.15;1.38;;;;;;;;;;5007960;28;20230;-70
2021/05/29 09:04:35;;;;;;;2.92;1.00;;;;;;;;;;5008239;28;20289;-68
2021/05/29 09:07:01;;;;;;;1.23;1.13;;;;;;;;;;5025761;28;20330;-69
2021/05/29 09:09:27;;;;;;;1.63;1.10;;;;;;;;;;5010979;28;20199;-69
2021/05/29 09:11:55;;;;;;;2.25;1.02;;;;;;;;;;5025069;28;20208;-69
2021/05/29 09:14:24;;;;;;;1.80;1.05;;;;;;;;;;5025170;28;20185;-68
2021/05/29 09:17:00;;;;;;;2.15;1.30;;;;;;;;;;5024291;28;20270;-69
2021/05/29 09:19:26;;;;;;;1.85;0.88;;;;;;;;;;5018846;28;20176;-69
2021/05/29 09:21:52;;;;;;;1.63;1.02;;;;;;;;;;5021273;28;20630;-69
2021/05/29 09:24:18;;;;;;;3.30;1.10;;;;;;;;;;5021087;28;20204;-70
2021/05/29 09:26:51;;;;;;;2.17;1.35;;;;;;;;;;5021340;28;20176;-69
2021/05/29 09:29:19;;;;;;;2.13;1.30;;;;;;;;;;5022813;28;20184;-68
2021/05/29 09:31:58;;;;;;;3.05;1.45;;;;;;;;;;5025278;28;20236;-70
2021/05/29 09:34:31;;;;;;;2.35;0.98;;;;;;;;;;5026736;28;20241;-68
2021/05/29 09:37:23;;;;;;;2.45;1.25;;;;;;;;;;5021671;28;20185;-70
2021/05/29 09:39:51;;;;;;;1.95;1.10;;;;;;;;;;5021553;28;20196;-70
2021/05/29 09:42:18;;;;;;;1.77;1.33;;;22.70;55.30;;;;;;5023789;28;20216;-69
2021/05/29 09:44:44;;;;;;;2.17;1.45;;;25.40;46.50;;;;;;5022802;28;20192;-70
2021/05/29 09:47:15;;;;;;;1.60;1.30;;;;;;;;;;5021132;28;20220;-69
2021/05/29 09:49:55;;;;;;;2.80;1.25;;;25.40;48.20;;;;;;5018965;28;20184;-70
2021/05/29 09:52:24;;;;;;;1.50;1.17;;;26.40;44.90;;;;;;5030488;28;20758;-69
2021/05/29 09:54:50;;;;;;;1.40;1.17;;;26.50;46.50;;;;;;5028849;28;20199;-69
2021/05/29 09:57:16;;;;;;;2.58;1.20;;;26.70;45.10;;;;;;5026531;28;20663;-70
2021/05/29 09:59:54;;;;;;;3.40;0.95;;;26.60;45.10;;;;;;5026019;28;20223;-69
2021/05/29 10:02:19;;;;;;;2.33;1.42;;;26.00;46.40;;;;;;5030209;28;20587;-70
2021/05/29 10:04:51;;;;;;;2.53;1.42;;;25.50;45.80;;;;;;5028445;28;20184;-69
2021/05/29 10:07:17;;;;;;;1.73;1.23;;;24.90;46.50;;;;;;5019964;28;20185;-69
2021/05/29 10:09:43;;;;;;;2.53;1.30;;;24.40;47.50;;;;;;5025609;28;20248;-69
2021/05/29 10:12:10;;;;;;;1.15;1.00;;;24.50;47.20;;;;;;5019749;28;20291;-69
2021/05/29 10:14:36;;;;;;;2.40;1.30;;;24.90;46.10;;;;;;5021723;28;20180;-69
2021/05/29 10:17:07;;;;;;;2.15;1.73;;;25.20;46.40;;;;;;5013198;28;20189;-70
2021/05/29 10:19:34;;;;;;;2.95;1.00;;;25.60;46.50;;;;;;5025636;28;20846;-69
2021/05/29 10:22:12;;;;;;;1.20;1.10;;;25.90;44.70;;;;;;5020355;28;20751;-69
2021/05/29 10:24:39;;;;;;;1.85;1.23;;;25.60;44.50;;;;;;5024252;28;20192;-69
2021/05/29 10:27:09;;;;;;;1.10;1.00;;;25.10;45.10;;;;;;5007249;28;20233;-69
2021/05/29 10:29:36;;;;;;;2.47;1.10;;;24.90;44.70;;;;;;5023010;28;20259;-69
2021/05/29 10:32:13;;;;;;;1.35;1.00;;;25.10;45.50;;;;;;5024534;28;20651;-70
2021/05/29 10:35:00;;;;;;;4.03;1.08;;;25.50;44.30;;;;;;5023787;28;20239;-70
2021/05/29 10:37:33;;;;;;;1.65;1.10;;;25.80;43.70;;;;;;5029086;28;20545;-70
2021/05/29 10:40:17;;;;;;;2.03;1.00;;;;;;;;;;5021872;28;20188;-70
2021/05/29 10:42:44;;;;;;;1.67;1.20;;;;;;;;;;5015912;28;20211;-69
2021/05/29 10:45:17;;;;;;;2.78;1.13;;;;;;;;;;5019554;28;20250;-71
2021/05/29 10:48:02;;;;;;;2.72;1.15;;;;;;;;;;5025925;28;20285;-70
2021/05/29 10:53:35;;;;;;;2.20;1.10;;;;;;;;;;5023921;28;20220;-71
2021/05/29 10:56:17;;;;;;;1.13;0.90;;;;;;;;;;5028949;28;20223;-70
2021/05/29 10:59:00;;;;;;;2.45;1.30;;;27.20;44.90;;;;;;5016917;28;20211;-70
2021/05/29 11:01:50;;;;;;;2.25;1.15;;;;;;;;;;5024530;28;20748;-69
2021/05/29 11:04:16;;;;;;;1.20;1.10;;;;;;;;;;5022882;28;20287;-70
2021/05/29 11:06:43;;;;;;;4.80;1.42;;;;;;;;;;5023038;28;20647;-70
2021/05/29 11:09:09;;;;;;;1.67;0.90;;;;;;;;;;5022558;28;20679;-70
2021/05/29 11:14:11;;;;;;;1.42;0.90;;;;;;;;;;5024137;28;20234;-70
2021/05/29 11:16:49;;;;;;;1.85;1.00;;;;;;;;;;5026697;28;20180;-70
2021/05/29 11:19:15;;;;;;;1.42;1.10;;;;;;;;;;5007491;28;21081;-70
2021/05/29 11:22:00;;;;;;;1.88;1.05;;;;;;;;;;5020913;28;20212;-70
2021/05/29 11:24:30;;;;;;;1.45;1.17;;;;;;;;;;5024279;28;20276;-70
2021/05/29 11:26:56;;;;;;;2.17;1.10;;;;;;;;;;5006491;28;20603;-70
2021/05/29 11:29:22;;;;;;;2.50;1.15;;;;;;;;;;5018798;28;20288;-70
2021/05/29 11:31:49;;;;;;;1.27;0.82;;;;;;;;;;5019672;28;20223;-70
2021/05/29 11:34:15;;;;;;;2.28;1.00;;;;;;;;;;5023920;28;20437;-70
2021/05/29 11:36:42;;;;;;;1.75;1.00;;;;;;;;;;5018630;28;20188;-70
2021/05/29 11:39:13;;;;;;;0.68;0.60;;;;;;;;;;5019428;28;20213;-70
2021/05/29 11:41:39;;;;;;;2.38;0.93;;;;;;;;;;5020583;28;20208;-70
2021/05/29 11:44:08;;;;;;;2.08;0.88;;;;;;;;;;5025678;28;20196;-70
2021/05/29 11:46:35;;;;;;;1.60;0.95;;;;;;;;;;5022170;28;20181;-70
2021/05/29 11:49:02;;;;;;;1.10;0.80;;;;;;;;;;5026277;28;20215;-70
2021/05/29 11:51:30;;;;;;;2.17;0.60;;;;;;;;;;5027264;28;20606;-70
2021/05/29 11:54:04;;;;;;;2.20;0.57;;;;;;;;;;5027073;28;20184;-70
2021/05/29 11:56:32;;;;;;;1.60;0.70;;;;;;;;;;5019943;28;20767;-70
2021/05/29 11:58:58;;;;;;;2.80;1.33;;;;;;;;;;5022006;28;20194;-70
2021/05/29 12:01:34;;;;;;;2.10;0.88;;;;;;;;;;5024323;28;20216;-70
2021/05/29 12:04:02;;;;;;;1.50;0.60;;;;;;;;;;5021396;28;20183;-70
2021/05/29 12:06:34;;;;;;;0.70;0.60;;;;;;;;;;5026367;28;20185;-70
2021/05/29 12:09:00;;;;;;;0.75;0.57;;;;;;;;;;5026876;28;20233;-70
2021/05/29 12:11:31;;;;;;;0.85;0.57;;;;;;;;;;5024251;28;20200;-70
2021/05/29 12:14:00;;;;;;;1.27;0.70;;;;;;;;;;5004125;28;20191;-69
2021/05/29 12:16:34;;;;;;;2.67;2.22;;;26.90;43.90;;;;;;5021809;28;20193;-69
2021/05/29 12:19:00;;;;;;;1.20;0.70;;;;;;;;;;5018975;28;20747;-69
2021/05/29 12:21:42;;;;;;;3.45;0.70;;;;;;;;;;5013946;28;20216;-69
2021/05/29 12:24:08;;;;;;;1.38;0.80;;;;;;;;;;5016226;28;20203;-69
2021/05/29 12:26:35;;;;;;;2.38;0.60;;;;;;;;;;5014601;28;20858;-69
2021/05/29 12:29:00;;;;;;;0.98;0.73;;;29.60;34.90;;;;;;5023493;28;20779;-68
2021/05/29 12:31:46;;;;;;;1.73;0.82;;;28.40;35.40;;;;;;5022834;28;20219;-69
2021/05/29 12:34:12;;;;;;;3.10;0.80;;;28.70;36.70;;;;;;5021571;28;20272;-68
2021/05/29 12:37:08;;;;;;;1.60;0.63;;;28.60;35.80;;;;;;5022990;28;20319;-68
2021/05/29 12:39:49;;;;;;;3.60;0.90;;;28.10;35.90;;;;;;5018159;28;20235;-68
2021/05/29 12:42:34;;;;;;;0.75;0.57;;;27.40;34.60;;;;;;5023255;28;20216;-68
2021/05/29 12:45:15;;;;;;;3.15;0.68;;;26.70;36.20;;;;;;5024227;28;20230;-68
2021/05/29 12:47:53;;;;;;;1.52;0.70;;;26.50;37.20;;;;;;5023315;28;20196;-67
2021/05/29 12:50:22;;;;;;;2.63;0.57;;;26.80;37.80;;;;;;5024796;28;20680;-68
2021/05/29 12:52:47;;;;;;;0.93;0.55;;;27.20;35.40;;;;;;5022740;28;20204;-68
2021/05/29 12:55:19;;;;;;;0.93;0.70;;;27.00;35.00;;;;;;5022574;28;20211;-68
2021/05/29 12:57:44;;;;;;;0.80;0.60;;;27.00;36.30;;;;;;5026090;28;20184;-68
2021/05/29 13:00:15;;;;;;;1.67;0.52;;;27.00;35.70;;;;;;5022312;28;20236;-68
2021/05/29 13:07:24;;;;;;;1.30;0.55;;;27.20;37.30;;;;;;5009877;28;20211;-68
2021/05/29 13:09:06;;;;;;;1.30;0.50;;;28.00;35.40;;;;;;5025276;28;20255;-68
2021/05/29 13:11:31;;;;;;;1.95;0.40;;;28.30;34.90;;;;;;5022956;28;20196;-68
2021/05/29 13:13:58;;;;;;;1.92;0.43;;;28.00;34.50;;;;;;5025893;28;20192;-68
2021/05/29 13:16:23;;;;;;;1.00;0.55;;;28.10;33.30;;;;;;5024172;28;20184;-68
2021/05/29 13:19:05;;;;;;;1.95;0.60;;;28.20;34.40;;;;;;5025613;28;20631;-68
2021/05/29 13:21:34;;;;;;;2.53;0.60;;;28.40;35.20;;;;;;5019086;28;20285;-68
2021/05/29 13:24:01;;;;;;;2.35;0.57;;;28.40;35.20;;;;;;5022107;28;20188;-68
2021/05/29 13:26:29;;;;;;;0.70;0.47;;;28.30;34.70;;;;;;5025314;28;20188;-68
2021/05/29 13:28:57;;;;;;;2.85;0.60;;;28.20;34.10;;;;;;5024234;28;20207;-68
2021/05/29 13:31:23;;;;;;;1.48;0.40;;;28.10;34.50;;;;;;5023467;28;20679;-68